Time;durP1;ratioP1;P1;durP2;ratioP2;P2;SDS_P1;SDS_P2;PMS_P1;PMS_P2;Temp;Humidity;BMP_temperature;BMP_pressure;BME280_temperature;BME280_humidity;BME280_pressure;Samples;Min_cycle;Max_cycle;Signal;HPM_P1;HPM_P2
2022/06/20 00:00:47;;;;;;;8.43;2.00;;;;;;;;;;5056668;28;20045;-72
2022/06/20 00:03:20;;;;;;;9.10;2.40;;;;;;;;;;5057405;28;20033;-72
2022/06/20 00:05:46;;;;;;;4.97;2.38;;;;;;;;;;5073003;28;20028;-72
2022/06/20 00:08:12;;;;;;;7.88;2.30;;;;;;;;;;5056048;28;20036;-74
2022/06/20 00:10:40;;;;;;;6.90;2.20;;;;;;;;;;5072765;28;20125;-74
2022/06/20 00:13:06;;;;;;;10.57;2.53;;;;;;;;;;5055503;28;20122;-75
2022/06/20 00:15:35;;;;;;;5.35;2.00;;;;;;;;;;5071376;28;20549;-74
2022/06/20 00:18:03;;;;;;;5.80;2.05;;;;;;;;;;5072450;28;20465;-74
2022/06/20 00:20:29;;;;;;;9.68;2.50;;;;;;;;;;5070190;28;20123;-75
2022/06/20 00:22:55;;;;;;;11.55;3.03;;;;;;;;;;5070613;28;20045;-74
2022/06/20 00:25:22;;;;;;;8.85;2.50;;;;;;;;;;5054263;28;20416;-74
2022/06/20 00:27:48;;;;;;;8.85;2.80;;;;;;;;;;5069987;28;20032;-74
2022/06/20 00:30:15;;;;;;;6.57;2.40;;;;;;;;;;5067814;28;20036;-74
2022/06/20 00:32:41;;;;;;;9.27;2.78;;;;;;;;;;5070126;28;20060;-74
2022/06/20 00:35:08;;;;;;;7.80;2.60;;;;;;;;;;5070630;28;20413;-74
2022/06/20 00:37:34;;;;;;;8.10;2.17;;;;;;;;;;5070685;28;20041;-74
2022/06/20 00:40:00;;;;;;;8.88;2.75;;;;;;;;;;5071056;28;20048;-74
2022/06/20 00:42:26;;;;;;;7.07;2.70;;;;;;;;;;5053938;28;20127;-74
2022/06/20 00:44:57;;;;;;;6.47;1.90;;;;;;;;;;5070293;28;20051;-74
2022/06/20 00:47:26;;;;;;;6.97;2.13;;;;;;;;;;5070229;28;20048;-74
2022/06/20 00:50:11;;;;;;;5.88;2.17;;;;;;;;;;5057777;28;20058;-74
2022/06/20 00:52:40;;;;;;;6.63;2.00;;;;;;;;;;5053631;28;20067;-74
2022/06/20 00:55:36;;;;;;;9.35;1.90;;;;;;;;;;5070136;28;20036;-74
2022/06/20 00:58:09;;;;;;;8.02;1.92;;;;;;;;;;5061532;28;20067;-74
2022/06/20 01:00:37;;;;;;;6.22;2.08;;;;;;;;;;5071614;28;20374;-74
2022/06/20 01:03:06;;;;;;;7.70;1.98;;;;;;;;;;5072070;28;20087;-74
2022/06/20 01:05:36;;;;;;;7.05;2.25;;;;;;;;;;5069756;28;20052;-74
2022/06/20 01:08:14;;;;;;;8.70;2.20;;;;;;;;;;5053610;28;20404;-75
2022/06/20 01:10:45;;;;;;;8.23;2.08;;;;;;;;;;5038395;28;20044;-74
2022/06/20 01:13:13;;;;;;;5.60;1.75;;;;;;;;;;5070553;28;20365;-74
2022/06/20 01:15:41;;;;;;;4.72;1.60;;;;;;;;;;5069741;28;20045;-75
2022/06/20 01:18:14;;;;;;;7.95;1.90;;;;;;;;;;5053356;28;20044;-75
2022/06/20 01:20:40;;;;;;;9.35;1.80;;;;;;;;;;5052830;28;20078;-75
2022/06/20 01:23:16;;;;;;;7.60;1.73;;;;;;;;;;5061964;28;20053;-74
2022/06/20 01:25:42;;;;;;;8.77;2.00;;;;;;;;;;5069915;28;20047;-75
2022/06/20 01:28:12;;;;;;;7.25;1.60;;;;;;;;;;5070079;28;20049;-75
2022/06/20 01:30:40;;;;;;;5.35;1.70;;;;;;;;;;5055954;28;20056;-75
2022/06/20 01:33:07;;;;;;;6.18;1.70;;;;;;;;;;5071572;28;20036;-75
2022/06/20 01:38:19;;;;;;;6.95;1.52;;;;;;;;;;5066239;28;20520;-75
2022/06/20 01:43:35;;;;;;;8.03;1.73;;;;;;;;;;5070013;28;20056;-75
2022/06/20 01:46:04;;;;;;;6.20;1.92;;;;;;;;;;5056835;28;20037;-74
2022/06/20 01:48:32;;;;;;;7.05;1.83;;;;;;;;;;5057181;28;20096;-74
2022/06/20 01:50:59;;;;;;;4.93;2.05;;;;;;;;;;5074869;28;20551;-75
2022/06/20 01:53:28;;;;;;;5.63;1.80;;;;;;;;;;5056822;28;20498;-74
2022/06/20 01:55:55;;;;;;;7.10;1.70;;;;;;;;;;5074091;28;20043;-75
2022/06/20 01:58:24;;;;;;;5.85;2.00;;;;;;;;;;5073334;28;20037;-75
2022/06/20 02:00:50;;;;;;;10.68;2.05;;;;;;;;;;5068052;28;20489;-75
2022/06/20 02:03:19;;;;;;;7.43;2.08;;;;;;;;;;5055601;28;20566;-75
2022/06/20 02:05:46;;;;;;;9.70;2.13;;;;;;;;;;5052011;28;20044;-75
2022/06/20 02:08:14;;;;;;;8.50;2.40;;;;;;;;;;5052866;28;20091;-74
2022/06/20 02:10:47;;;;;;;7.18;1.73;;;;;;;;;;5052854;28;20040;-74
2022/06/20 02:13:14;;;;;;;6.53;1.88;;;;;;;;;;5052970;28;20072;-74
2022/06/20 02:15:40;;;;;;;8.43;1.98;;;;;;;;;;5053897;28;20044;-74
2022/06/20 02:18:07;;;;;;;5.90;2.00;;;;;;;;;;5036096;28;20049;-74
2022/06/20 02:20:38;;;;;;;5.78;2.13;;;;;;;;;;5053281;28;20124;-74
2022/06/20 02:23:05;;;;;;;7.30;2.08;;;;;;;;;;5053828;28;20041;-75
2022/06/20 02:25:33;;;;;;;8.40;2.70;;;;;;;;;;5052923;28;20033;-75
2022/06/20 02:28:03;;;;;;;5.50;2.10;;;;;;;;;;5052234;28;20099;-75
2022/06/20 02:30:29;;;;;;;6.35;1.98;;;;;;;;;;5052589;28;20056;-75
2022/06/20 02:33:04;;;;;;;8.60;2.17;;;;;;;;;;5069808;28;20040;-74
2022/06/20 02:35:31;;;;;;;9.57;2.20;;;;;;;;;;5072629;28;20048;-74
2022/06/20 02:37:57;;;;;;;6.07;1.85;;;;;;;;;;5073400;28;20083;-74
2022/06/20 02:40:25;;;;;;;4.72;1.70;;;;;;;;;;5056266;28;20036;-74
2022/06/20 02:43:04;;;;;;;7.30;2.40;;;;;;;;;;5072348;28;20048;-74
2022/06/20 02:45:32;;;;;;;5.43;2.20;;;;;;;;;;5047794;28;20051;-74
2022/06/20 02:47:59;;;;;;;7.55;2.40;;;;;;;;;;5072987;28;20057;-74
2022/06/20 02:50:28;;;;;;;5.15;2.10;;;;;;;;;;5072244;28;20040;-73
2022/06/20 02:52:58;;;;;;;4.25;2.10;;;;;;;;;;5071792;28;20063;-74
2022/06/20 02:55:25;;;;;;;6.72;2.20;;;;;;;;;;5073343;28;20480;-75
2022/06/20 02:57:53;;;;;;;6.00;2.00;;;;;;;;;;5054990;28;20124;-74
2022/06/20 03:00:22;;;;;;;9.02;2.40;;;;;;;;;;5055686;28;20044;-74
2022/06/20 03:02:51;;;;;;;6.68;2.00;;;;;;;;;;5073074;28;20114;-74
2022/06/20 03:05:18;;;;;;;5.82;2.05;;;;;;;;;;5072361;28;20218;-74
2022/06/20 03:07:45;;;;;;;5.68;2.38;;;;;;;;;;5071612;28;20041;-74
2022/06/20 03:10:25;;;;;;;5.70;2.30;;;;;;;;;;5072112;28;20055;-74
2022/06/20 03:12:52;;;;;;;6.72;2.35;;;;;;;;;;5071592;28;20085;-74
2022/06/20 03:15:18;;;;;;;6.32;2.30;;;;;;;;;;5071599;28;20047;-74
2022/06/20 03:17:45;;;;;;;8.60;2.45;;;;;;;;;;5071820;28;20097;-74
2022/06/20 03:20:13;;;;;;;7.75;2.60;;;;;;;;;;5071809;28;20123;-74
2022/06/20 03:22:43;;;;;;;6.43;2.45;;;;;;;;;;5071511;28;20044;-74
2022/06/20 03:25:12;;;;;;;6.07;2.40;;;;;;;;;;5071945;28;20052;-74
2022/06/20 03:27:39;;;;;;;5.90;2.25;;;;;;;;;;5071234;28;20036;-74
2022/06/20 03:30:23;;;;;;;5.60;2.38;;;;;;;;;;5071239;28;20041;-74
2022/06/20 03:32:49;;;;;;;5.40;2.53;;;;;;;;;;5070956;28;20189;-74
2022/06/20 03:35:15;;;;;;;6.93;2.40;;;;;;;;;;5072991;28;20041;-74
2022/06/20 03:37:42;;;;;;;6.10;2.20;;;;;;;;;;5071624;28;20123;-74
2022/06/20 03:40:11;;;;;;;5.22;2.25;;;;;;;;;;5072383;28;20040;-74
2022/06/20 03:42:37;;;;;;;5.38;2.60;;;;;;;;;;5071214;28;20052;-74
2022/06/20 03:45:05;;;;;;;7.45;2.33;;;;;;;;;;5066979;28;20051;-74
2022/06/20 03:47:39;;;;;;;4.85;2.28;;;;;;;;;;5061358;28;20072;-73
2022/06/20 03:50:08;;;;;;;6.20;2.10;;;;;;;;;;5070821;28;20036;-74
2022/06/20 03:52:37;;;;;;;7.80;2.55;;;;;;;;;;5054850;28;20485;-73
2022/06/20 03:55:25;;;;;;;5.82;2.05;;;;;;;;;;5070315;28;20045;-74
2022/06/20 03:57:53;;;;;;;5.65;2.03;;;;;;;;;;5070713;28;20040;-73
2022/06/20 04:00:22;;;;;;;7.90;2.33;;;;;;;;;;5071291;28;20499;-74
2022/06/20 04:02:56;;;;;;;5.60;2.17;;;;;;;;;;5055508;28;20417;-74
2022/06/20 04:05:29;;;;;;;8.13;2.08;;;;;;;;;;5050597;28;20037;-74
2022/06/20 04:08:06;;;;;;;3.53;1.80;;;;;;;;;;5050023;28;20041;-74
2022/06/20 04:13:29;;;;;;;5.13;2.13;;;;;;;;;;5050677;28;20047;-74
2022/06/20 04:16:03;;;;;;;4.63;2.10;;;;;;;;;;5050271;28;20051;-74
2022/06/20 04:18:31;;;;;;;5.28;1.90;;;;;;;;;;5058757;28;20037;-74
2022/06/20 04:21:06;;;;;;;4.78;2.00;;;;;;;;;;5050411;28;20558;-73
2022/06/20 04:23:48;;;;;;;4.78;1.98;;;;;;;;;;5050658;28;20137;-74
2022/06/20 04:26:20;;;;;;;7.60;2.00;;;;;;;;;;5049971;28;20049;-74
2022/06/20 04:28:49;;;;;;;5.13;2.00;;;;;;;;;;5050513;28;20040;-74
2022/06/20 04:31:25;;;;;;;8.43;2.22;;;;;;;;;;5052885;28;20040;-74
2022/06/20 04:33:55;;;;;;;4.43;1.85;;;;;;;;;;5070483;28;20068;-74
2022/06/20 04:36:21;;;;;;;7.60;2.15;;;;;;;;;;5070997;28;20043;-74
2022/06/20 04:39:01;;;;;;;3.50;1.77;;;;;;;;;;5054174;28;20044;-74
2022/06/20 04:41:41;;;;;;;5.38;1.80;;;;;;;;;;5054297;28;20045;-74
2022/06/20 04:44:10;;;;;;;5.88;1.90;;;;;;;;;;5070395;28;20041;-74
2022/06/20 04:47:12;;;;;;;5.80;1.90;;;;;;;;;;5070631;28;20048;-74
2022/06/20 04:49:39;;;;;;;12.90;2.45;;;;;;;;;;5032926;28;20056;-73
2022/06/20 04:52:06;;;;;;;5.60;1.90;;;;;;;;;;5062202;28;20044;-74
2022/06/20 04:54:33;;;;;;;5.85;1.80;;;;;;;;;;5070872;28;20040;-74
2022/06/20 04:56:59;;;;;;;7.85;2.20;;;;;;;;;;5070077;28;20045;-75
2022/06/20 04:59:28;;;;;;;5.05;1.90;;;;;;;;;;5070806;28;20048;-74
2022/06/20 05:01:57;;;;;;;5.55;2.10;;;;;;;;;;5053622;28;20133;-75
2022/06/20 05:04:33;;;;;;;7.63;2.05;;;;;;;;;;5071959;28;20535;-74
2022/06/20 05:07:01;;;;;;;5.65;2.10;;;;;;;;;;5070283;28;20485;-74
2022/06/20 05:09:47;;;;;;;7.35;2.08;;;;;;;;;;5070565;28;20402;-74
2022/06/20 05:12:21;;;;;;;4.00;1.83;;;;;;;;;;5049770;28;20083;-75
2022/06/20 05:15:10;;;;;;;6.43;2.08;;;;;;;;;;5053884;28;20048;-75
2022/06/20 05:17:37;;;;;;;6.40;1.95;;;;;;;;;;5070374;28;20068;-75
2022/06/20 05:20:18;;;;;;;4.65;1.75;;;;;;;;;;5073868;28;20123;-75
2022/06/20 05:22:49;;;;;;;5.47;1.75;;;;;;;;;;5057508;28;20050;-75
2022/06/20 05:25:18;;;;;;;7.15;2.00;;;;;;;;;;5075147;28;20048;-75
2022/06/20 05:27:49;;;;;;;5.03;1.92;;;;;;;;;;5073670;28;20036;-75
2022/06/20 05:30:19;;;;;;;8.13;2.22;;;;;;;;;;5073049;28;20050;-75
2022/06/20 05:32:52;;;;;;;7.63;2.25;;;;;;;;;;5073754;28;20044;-75
2022/06/20 05:35:22;;;;;;;5.63;1.77;;;;;;;;;;5073714;28;20048;-75
2022/06/20 05:37:55;;;;;;;6.18;2.05;;;;;;;;;;5073770;28;20460;-75
2022/06/20 05:40:35;;;;;;;6.25;2.05;;;;;;;;;;5073272;28;20043;-75
2022/06/20 05:43:01;;;;;;;5.85;2.10;;;;;;;;;;5056637;28;20087;-75
2022/06/20 05:45:29;;;;;;;8.45;2.22;;;;;;;;;;5073929;28;20412;-75
2022/06/20 05:47:56;;;;;;;5.70;2.25;;;;;;;;;;5073154;28;20501;-75
2022/06/20 05:50:37;;;;;;;7.35;2.40;;;;;;;;;;5072946;28;20393;-75
2022/06/20 05:53:05;;;;;;;6.55;2.30;;;;;;;;;;5074794;28;20036;-75
2022/06/20 05:55:36;;;;;;;6.78;2.38;;;;;;;;;;5073160;28;20111;-75
2022/06/20 05:58:02;;;;;;;7.18;2.70;;;;;;;;;;5107184;28;20532;-75
2022/06/20 06:00:32;;;;;;;6.65;2.25;;;;;;;;;;5056567;28;20039;-75
2022/06/20 06:03:00;;;;;;;8.75;2.50;;;;;;;;;;5073440;28;20123;-75
2022/06/20 06:05:32;;;;;;;6.72;2.22;;;;;;;;;;5056225;28;20037;-75
2022/06/20 06:08:17;;;;;;;7.75;2.20;;;;;;;;;;5073459;28;20497;-75
2022/06/20 06:10:45;;;;;;;7.30;2.13;;;;;;;;;;5074785;28;20043;-75
2022/06/20 06:13:17;;;;;;;7.05;2.22;;;;;;;;;;5073440;28;20047;-75
2022/06/20 06:16:46;;;;;;;6.18;2.13;;;;;;;;;;5056380;28;20033;-74
2022/06/20 06:18:36;;;;;;;8.85;2.40;;;;;;;;;;5073305;28;20048;-75
2022/06/20 06:21:02;;;;;;;7.75;2.42;;;;;;;;;;5073301;28;20045;-74
2022/06/20 06:23:29;;;;;;;9.98;2.30;;;;;;;;;;5056288;28;20040;-74
2022/06/20 06:25:55;;;;;;;8.38;2.20;;;;;;;;;;5072795;28;20536;-75
2022/06/20 06:28:22;;;;;;;7.75;2.40;;;;;;;;;;5072788;28;20037;-75
2022/06/20 06:31:07;;;;;;;6.78;1.92;;;;;;;;;;5072053;28;20052;-74
2022/06/20 06:33:33;;;;;;;5.10;1.98;;;;;;;;;;5048719;28;20032;-75
2022/06/20 06:36:02;;;;;;;7.07;1.83;;;;;;;;;;5072521;28;20072;-75
2022/06/20 06:38:37;;;;;;;4.30;1.63;;;;;;;;;;5072185;28;20090;-74
2022/06/20 06:41:06;;;;;;;7.35;2.17;;;;;;;;;;5072482;28;20107;-75
2022/06/20 06:43:39;;;;;;;5.60;1.70;;;;;;;;;;5072202;28;20037;-75
2022/06/20 06:46:10;;;;;;;5.00;1.60;;;;;;;;;;5055726;28;20046;-75
2022/06/20 06:48:47;;;;;;;5.47;1.77;;;;;;;;;;5072086;28;20063;-75
2022/06/20 06:51:15;;;;;;;7.10;1.75;;;;;;;;;;5055539;28;20431;-74
2022/06/20 06:53:47;;;;;;;4.45;1.92;;;;;;;;;;5072324;28;20374;-75
2022/06/20 06:56:19;;;;;;;7.53;1.77;;;;;;;;;;5072066;28;20072;-75
2022/06/20 06:58:58;;;;;;;3.78;1.65;;;;;;;;;;5072211;28;20138;-75
2022/06/20 07:01:29;;;;;;;6.40;2.10;;;;;;;;;;5071789;28;20071;-75
2022/06/20 07:04:17;;;;;;;6.43;1.95;;;;;;;;;;5072198;28;20431;-75
2022/06/20 07:07:09;;;;;;;5.63;1.88;;;;;;;;;;5072100;28;20094;-75
2022/06/20 07:09:36;;;;;;;6.30;1.77;;;;;;;;;;5070323;28;20523;-74
2022/06/20 07:12:17;;;;;;;8.98;2.00;;;;;;;;;;5072988;28;20098;-74
2022/06/20 07:14:44;;;;;;;5.60;1.90;;;;;;;;;;5072022;28;20444;-74
2022/06/20 07:17:16;;;;;;;5.30;1.80;;;;;;;;;;5054707;28;20045;-75
2022/06/20 07:19:45;;;;;;;3.60;1.42;;;;;;;;;;5055392;28;20447;-74
2022/06/20 07:22:14;;;;;;;5.53;2.00;;;;;;;;;;5071041;28;20075;-74
2022/06/20 07:24:41;;;;;;;7.15;2.05;;;;;;;;;;5055096;28;20127;-74
2022/06/20 07:27:11;;;;;;;7.20;1.90;;;;;;;;;;5071749;28;20043;-75
2022/06/20 07:29:40;;;;;;;6.40;1.95;;;;;;;;;;5054820;28;20072;-75
2022/06/20 07:32:11;;;;;;;5.65;2.10;;;;;;;;;;5071587;28;20040;-75
2022/06/20 07:34:38;;;;;;;12.45;2.25;;;;;;;;;;5071502;28;20044;-75
2022/06/20 07:37:09;;;;;;;6.03;1.80;;;;;;;;;;5072965;28;20512;-75
2022/06/20 07:39:42;;;;;;;6.70;2.30;;;;;;;;;;5054650;28;20373;-75
2022/06/20 07:42:11;;;;;;;6.65;1.30;;;;;;;;;;5070882;28;20040;-75
2022/06/20 07:44:46;;;;;;;6.47;1.63;;;;;;;;;;5072239;28;20032;-75
2022/06/20 07:47:12;;;;;;;;;;;;;;;;;;5071339;28;20129;-75
2022/06/20 07:49:53;;;;;;;5.45;1.63;;;;;;;;;;5071168;28;19962;-75
2022/06/20 07:52:23;;;;;;;6.80;1.60;;;;;;;;;;5046137;28;20044;-75
2022/06/20 07:54:53;;;;;;;7.40;1.50;;;;;;;;;;5072283;28;20167;-75
2022/06/20 07:57:25;;;;;;;4.90;1.50;;;;;;;;;;5053919;28;20040;-75
2022/06/20 07:59:54;;;;;;;5.30;1.60;;;;;;;;;;5071047;28;20124;-75
2022/06/20 08:02:23;;;;;;;7.43;1.77;;;;;;;;;;5054038;28;20119;-74
2022/06/20 08:04:52;;;;;;;5.10;1.63;;;;;;;;;;5071283;28;20037;-75
2022/06/20 08:07:25;;;;;;;6.70;2.00;;;;;;;;;;5070700;28;20039;-75
2022/06/20 08:09:54;;;;;;;6.93;1.92;;;;;;;;;;5071336;28;20113;-75
2022/06/20 08:12:23;;;;;;;6.20;1.95;;;;;;;;;;5070987;28;20036;-75
2022/06/20 08:14:55;;;;;;;6.95;1.70;;;;;;;;;;5070966;28;20087;-75
2022/06/20 08:17:22;;;;;;;8.10;1.52;;;;;;;;;;5072271;28;20040;-74
2022/06/20 08:19:49;;;;;;;5.90;1.92;;;;;;;;;;5072698;28;20036;-75
2022/06/20 08:22:24;;;;;;;5.50;1.35;;;;;;;;;;5070904;28;20036;-74
2022/06/20 08:24:54;;;;;;;4.15;1.40;;;;;;;;;;5071065;28;20737;-74
2022/06/20 08:27:24;;;;;;;5.97;1.48;;;;;;;;;;5070501;28;20044;-74
2022/06/20 08:30:11;;;;;;;7.00;1.30;;;;;;;;;;5070483;28;20036;-74
2022/06/20 08:32:56;;;;;;;4.15;1.27;;;;;;;;;;5069974;28;20462;-74
2022/06/20 08:35:32;;;;;;;4.95;1.50;;;;;;;;;;5030281;28;20101;-74
2022/06/20 08:38:04;;;;;;;3.53;1.10;;;;;;;;;;5070416;28;20098;-74
2022/06/20 08:40:42;;;;;;;4.00;1.30;;;;;;;;;;5070521;28;20476;-74
2022/06/20 08:43:11;;;;;;;3.95;1.30;;;;;;;;;;5070463;28;20040;-74
2022/06/20 08:45:57;;;;;;;4.10;1.25;;;;;;;;;;5069994;28;20048;-74
2022/06/20 08:48:42;;;;;;;5.05;1.27;;;;;;;;;;5062653;28;20071;-74
2022/06/20 08:51:11;;;;;;;3.50;1.00;;;;;;;;;;5070664;28;20080;-74
2022/06/20 08:53:40;;;;;;;3.10;1.10;;;;;;;;;;5103513;28;20045;-74
2022/06/20 08:56:12;;;;;;;3.70;1.30;;;;;;;;;;5074813;28;20683;-74
2022/06/20 08:58:42;;;;;;;4.43;1.20;;;;;;;;;;5057319;28;20044;-74
2022/06/20 09:01:14;;;;;;;3.40;1.08;;;;;;;;;;5074597;28;20083;-74
2022/06/20 09:03:40;;;;;;;6.65;1.30;;;;;;;;;;5075632;28;20036;-74
2022/06/20 09:06:07;;;;;;;5.68;1.55;;;;;;;;;;5057459;28;20082;-74
2022/06/20 09:08:47;;;;;;;5.78;1.40;;;;;;;;;;5073792;28;20036;-74
2022/06/20 09:11:31;;;;;;;8.50;1.60;;;;;;;;;;5075737;28;20036;-74
2022/06/20 09:14:36;;;;;;;3.95;1.50;;;;;;;;;;5057279;28;20059;-74
2022/06/20 09:17:21;;;;;;;4.50;1.30;;;;;;;;;;5036280;28;20087;-74
2022/06/20 09:20:02;;;;;;;4.93;1.42;;;;;;;;;;5036162;28;20044;-75
2022/06/20 09:22:48;;;;;;;4.57;1.30;;;;;;;;;;5061455;28;20044;-74
2022/06/20 09:25:27;;;;;;;5.70;1.42;;;;;;;;;;5108063;28;20073;-74
2022/06/20 09:28:11;;;;;;;6.40;1.42;;;;;;;;;;5046757;28;20098;-75
2022/06/20 09:30:40;;;;;;;5.40;1.20;;;;;;;;;;5073352;28;20374;-74
2022/06/20 09:33:06;;;;;;;6.13;1.52;;;;;;;;;;5074644;28;20036;-74
2022/06/20 09:35:32;;;;;;;5.90;1.45;;;;;;;;;;5073312;28;20037;-74
2022/06/20 09:37:59;;;;;;;4.53;1.33;;;;;;;;;;5073516;28;20044;-74
2022/06/20 09:40:34;;;;;;;6.78;1.70;;;;;;;;;;5074808;28;20040;-74
2022/06/20 09:43:19;;;;;;;5.20;1.40;;;;;;;;;;5073550;28;20045;-74
2022/06/20 09:45:45;;;;;;;7.65;1.60;;;;;;;;;;5073377;28;20044;-74
2022/06/20 09:48:29;;;;;;;5.38;1.45;;;;;;;;;;5054746;28;20064;-74
2022/06/20 09:51:14;;;;;;;5.63;1.70;;;;;;;;;;5063882;28;20070;-74
2022/06/20 09:53:48;;;;;;;4.78;1.40;;;;;;;;;;5106862;28;20102;-74
2022/06/20 09:56:20;;;;;;;6.75;1.70;;;;;;;;;;5073921;28;20493;-74
2022/06/20 09:58:55;;;;;;;5.60;1.30;;;;;;;;;;5072855;28;20070;-74
2022/06/20 10:01:40;;;;;;;5.32;1.50;;;;;;;;;;5074851;28;20148;-74
2022/06/20 10:04:09;;;;;;;3.55;1.30;;;;;;;;;;5046614;28;20036;-75
2022/06/20 10:06:55;;;;;;;4.55;1.50;;;;;;;;;;5072545;28;20098;-75
2022/06/20 10:09:21;;;;;;;6.10;1.60;;;;;;;;;;5052823;28;20106;-75
2022/06/20 10:11:50;;;;;;;6.30;1.48;;;;;;;;;;5073013;28;20064;-74
2022/06/20 10:14:16;;;;;;;5.63;1.35;;;;;;;;;;5045865;28;20040;-74
2022/06/20 10:16:53;;;;;;;4.00;1.40;;;;;;;;;;5072756;28;20087;-74
2022/06/20 10:19:29;;;;;;;5.75;1.70;;;;;;;;;;5074337;28;20043;-74
2022/06/20 10:21:58;;;;;;;5.18;1.40;;;;;;;;;;5073205;28;20059;-74
2022/06/20 10:24:40;;;;;;;4.07;1.40;;;;;;;;;;5072814;28;20036;-74
2022/06/20 10:27:06;;;;;;;5.15;1.70;;;;;;;;;;5072982;28;20082;-74
2022/06/20 10:29:38;;;;;;;3.58;1.48;;;;;;;;;;5072173;28;20090;-75
2022/06/20 10:32:13;;;;;;;4.07;1.50;;;;;;;;;;5106612;28;20041;-75
2022/06/20 10:34:39;;;;;;;;;;;;;;;;;;5073505;28;20079;-74
2022/06/20 10:37:05;;;;;;;5.32;1.45;;;;;;;;;;5073240;28;19956;-74
2022/06/20 10:39:34;;;;;;;6.65;1.63;;;;;;;;;;5072712;28;20497;-74
2022/06/20 10:42:17;;;;;;;5.75;1.70;;;;;;;;;;5056325;28;20040;-74
2022/06/20 10:45:02;;;;;;;4.85;1.60;;;;;;;;;;5073487;28;20044;-75
2022/06/20 10:47:33;;;;;;;7.03;1.60;;;;;;;;;;5073615;28;20078;-74
2022/06/20 10:50:03;;;;;;;6.15;2.25;;;;;;;;;;5072506;28;20068;-74
2022/06/20 10:52:47;;;;;;;5.72;1.92;;;;;;;;;;5055807;28;20044;-74
2022/06/20 10:55:32;;;;;;;7.30;2.27;;;;;;;;;;5073280;28;20504;-74
2022/06/20 10:57:58;;;;;;;5.00;1.60;;;;;;;;;;5072153;28;20520;-74
2022/06/20 11:00:26;;;;;;;7.18;1.75;;;;;;;;;;5072432;28;20036;-75
2022/06/20 11:03:01;;;;;;;5.35;1.55;;;;;;;;;;5072231;28;20076;-74
2022/06/20 11:05:46;;;;;;;4.78;1.50;;;;;;;;;;5073329;28;20029;-74
2022/06/20 11:08:35;;;;;;;6.40;1.63;;;;;;;;;;5055756;28;20059;-74
2022/06/20 11:11:20;;;;;;;5.82;1.55;;;;;;;;;;5063101;28;20056;-75
2022/06/20 11:13:55;;;;;;;6.03;2.08;;;;;;;;;;5073889;28;20504;-74
2022/06/20 11:16:21;;;;;;;;;;;;;;;;;;5071876;28;20489;-74
2022/06/20 11:19:07;;;;;;;4.82;1.80;;;;;;;;;;5054335;28;19916;-74
2022/06/20 11:21:33;;;;;;;8.98;1.80;;;;;;;;;;5072080;28;20040;-73
2022/06/20 11:24:09;;;;;;;5.57;1.30;;;;;;;;;;5071539;28;20059;-74
2022/06/20 11:26:46;;;;;;;4.25;1.40;;;;;;;;;;5071631;28;20441;-74
2022/06/20 11:29:19;;;;;;;4.80;1.48;;;;;;;;;;5072530;28;20107;-74
2022/06/20 11:32:04;;;;;;;5.55;1.70;;;;;;;;;;5071428;28;20043;-74
2022/06/20 11:34:49;;;;;;;7.55;1.90;;;;;;;;;;5071458;28;20370;-74
2022/06/20 11:37:15;;;;;;;7.53;1.73;;;;;;;;;;5072194;28;20082;-74
2022/06/20 11:40:04;;;;;;;7.63;1.70;;;;;;;;;;5072540;28;20051;-74
2022/06/20 11:42:33;;;;;;;5.90;1.52;;;;;;;;;;5055446;28;20076;-74
2022/06/20 11:45:18;;;;;;;7.68;1.90;;;;;;;;;;5071034;28;20099;-74
2022/06/20 11:47:52;;;;;;;5.37;1.40;;;;;;;;;;5070783;28;20049;-74
2022/06/20 11:50:41;;;;;;;4.40;1.50;;;;;;;;;;5071561;28;20047;-75
2022/06/20 11:53:08;;;;;;;5.00;1.55;;;;;;;;;;5072743;28;20081;-74
2022/06/20 11:55:34;;;;;;;3.72;1.45;;;;;;;;;;5071459;28;20106;-74
2022/06/20 11:58:16;;;;;;;4.57;1.70;;;;;;;;;;5072358;28;20052;-74
2022/06/20 12:01:12;;;;;;;4.80;1.67;;;;;;;;;;5044431;28;20041;-74
2022/06/20 12:03:44;;;;;;;5.43;1.70;;;;;;;;;;5062917;28;20063;-74
2022/06/20 12:06:16;;;;;;;4.15;1.40;;;;;;;;;;5070653;28;20044;-74
2022/06/20 12:08:46;;;;;;;4.15;1.48;;;;;;;;;;5071089;28;20106;-74
2022/06/20 12:11:18;;;;;;;4.75;1.60;;;;;;;;;;5072935;28;20037;-74
2022/06/20 12:14:03;;;;;;;5.15;1.50;;;;;;;;;;5070852;28;20041;-74
2022/06/20 12:16:36;;;;;;;4.85;1.50;;;;;;;;;;5071518;28;20512;-74
2022/06/20 12:24:43;;;;;;;3.90;1.55;;;;;;;;;;5071259;28;20044;-74
2022/06/20 12:27:11;;;;;;;4.97;1.60;;;;;;;;;;5072715;28;20430;-74
2022/06/20 12:29:37;;;;;;;6.28;2.53;;;;;;;;;;5070410;28;20039;-74
2022/06/20 12:32:05;;;;;;;6.70;2.13;;;;;;;;;;5071164;28;20036;-74
2022/06/20 12:34:35;;;;;;;4.00;1.90;;;;;;;;;;5070886;28;20044;-74
2022/06/20 12:37:04;;;;;;;5.18;1.70;;;;;;;;;;5070545;28;20100;-74
2022/06/20 12:39:38;;;;;;;5.50;1.67;;;;;;;;;;5054548;28;20531;-74
2022/06/20 12:42:16;;;;;;;3.08;1.40;;;;;;;;;;5070699;28;20424;-74
2022/06/20 12:44:57;;;;;;;5.15;1.55;;;;;;;;;;5070892;28;20500;-74
2022/06/20 12:47:42;;;;;;;5.80;1.77;;;;;;;;;;5072357;28;20048;-74
2022/06/20 12:50:17;;;;;;;3.17;1.40;;;;;;;;;;5070743;28;20493;-74
2022/06/20 12:52:47;;;;;;;4.50;1.67;;;;;;;;;;5053809;28;20036;-74
2022/06/20 12:55:19;;;;;;;6.25;2.10;;;;;;;;;;5070404;28;20036;-74
2022/06/20 12:57:52;;;;;;;2.72;1.40;;;;;;;;;;5070932;28;20040;-74
2022/06/20 13:00:20;;;;;;;5.15;1.50;;;;;;;;;;5070787;28;20515;-73
2022/06/20 13:02:58;;;;;;;4.50;1.30;;;;;;;;;;5070255;28;20151;-74
2022/06/20 13:05:27;;;;;;;4.35;1.38;;;;;;;;;;5070501;28;20093;-74
2022/06/20 13:07:53;;;;;;;5.75;1.60;;;;;;;;;;5069878;28;20031;-73
2022/06/20 13:10:22;;;;;;;4.00;1.48;;;;;;;;;;5070424;28;20044;-74
2022/06/20 13:12:56;;;;;;;6.05;1.42;;;;;;;;;;5070707;28;20435;-74
2022/06/20 13:15:22;;;;;;;3.88;1.40;;;;;;;;;;5070316;28;20036;-74
2022/06/20 13:17:58;;;;;;;3.63;1.52;;;;;;;;;;5053748;28;20071;-74
2022/06/20 13:20:39;;;;;;;5.95;1.55;;;;;;;;;;5070622;28;20424;-74
2022/06/20 13:23:14;;;;;;;4.82;1.55;;;;;;;;;;5069768;28;20150;-74
2022/06/20 13:25:55;;;;;;;3.88;1.58;;;;;;;;;;5070103;28;20041;-74
2022/06/20 13:28:26;;;;;;;4.93;1.27;;;;;;;;;;5070177;28;20036;-74
2022/06/20 13:31:11;;;;;;;3.67;1.40;;;;;;;;;;5070490;28;20036;-75
2022/06/20 13:33:40;;;;;;;4.68;1.63;;;;;;;;;;5079412;28;20123;-74
2022/06/20 13:36:18;;;;;;;7.07;1.63;;;;;;;;;;5069550;28;20040;-74
2022/06/20 13:38:50;;;;;;;7.70;1.67;;;;;;;;;;5070037;28;20079;-74
2022/06/20 13:41:34;;;;;;;4.70;1.42;;;;;;;;;;5055841;28;20370;-74
2022/06/20 13:44:05;;;;;;;6.17;1.70;;;;;;;;;;5074189;28;20041;-74
2022/06/20 13:46:36;;;;;;;3.50;1.25;;;;;;;;;;5073773;28;20048;-74
2022/06/20 13:49:18;;;;;;;6.00;1.70;;;;;;;;;;5074213;28;20061;-74
2022/06/20 13:51:57;;;;;;;4.90;1.60;;;;;;;;;;5073876;28;20097;-74
2022/06/20 13:54:30;;;;;;;4.85;1.67;;;;;;;;;;5075316;28;20068;-74
2022/06/20 13:56:56;;;;;;;5.65;1.40;;;;;;;;;;5074760;28;20558;-74
2022/06/20 13:59:25;;;;;;;4.38;1.50;;;;;;;;;;5074703;28;20048;-74
2022/06/20 14:02:03;;;;;;;3.53;1.38;;;;;;;;;;5057116;28;20059;-74
2022/06/20 14:04:31;;;;;;;4.00;1.35;;;;;;;;;;5074973;28;20074;-74
2022/06/20 14:06:59;;;;;;;3.13;1.40;;;;;;;;;;5072684;28;20044;-74
2022/06/20 14:09:46;;;;;;;4.70;1.73;;;;;;;;;;5073497;28;20079;-74
2022/06/20 14:12:24;;;;;;;4.68;1.50;;;;;;;;;;5073074;28;20041;-74
2022/06/20 14:14:51;;;;;;;4.80;1.48;;;;;;;;;;5073380;28;20124;-74
2022/06/20 14:17:22;;;;;;;4.18;1.60;;;;;;;;;;5056109;28;20072;-74
2022/06/20 14:19:49;;;;;;;7.60;1.38;;;;;;;;;;5073161;28;20048;-74
2022/06/20 14:22:18;;;;;;;4.38;1.40;;;;;;;;;;5072513;28;20059;-74
2022/06/20 14:24:48;;;;;;;3.80;1.55;;;;;;;;;;5073050;28;20037;-74
2022/06/20 14:27:14;;;;;;;2.95;1.75;;;;;;;;;;5072338;28;20049;-74
2022/06/20 14:29:41;;;;;;;5.35;1.55;;;;;;;;;;5056006;28;20032;-74
2022/06/20 14:32:07;;;;;;;3.33;1.33;;;;;;;;;;5073854;28;20084;-74
2022/06/20 14:35:20;;;;;;;4.63;1.52;;;;;;;;;;5073322;28;20439;-74
2022/06/20 14:37:33;;;;;;;6.60;1.45;;;;;;;;;;5072987;28;20056;-74
2022/06/20 14:40:00;;;;;;;4.70;1.60;;;;;;;;;;5072682;28;20048;-74
2022/06/20 14:42:34;;;;;;;6.22;2.15;;;;;;;;;;5072942;28;20448;-74
2022/06/20 14:45:02;;;;;;;5.47;2.00;;;;;;;;;;5073850;28;20044;-74
2022/06/20 14:47:44;;;;;;;5.75;1.60;;;;;;;;;;5072247;28;20037;-74
2022/06/20 14:50:14;;;;;;;4.38;1.48;;;;;;;;;;5073412;28;20040;-74
2022/06/20 14:52:46;;;;;;;3.33;1.40;;;;;;;;;;5056210;28;20160;-74
2022/06/20 14:55:18;;;;;;;5.53;1.40;;;;;;;;;;5071881;28;20037;-74
2022/06/20 14:57:44;;;;;;;4.10;1.55;;;;;;;;;;5055737;28;20123;-74
2022/06/20 15:00:25;;;;;;;4.80;1.55;;;;;;;;;;5072081;28;20102;-74
2022/06/20 15:02:58;;;;;;;6.82;1.67;;;;;;;;;;5072200;28;20056;-74
2022/06/20 15:05:27;;;;;;;4.13;1.73;;;;;;;;;;5071916;28;20068;-73
2022/06/20 15:08:02;;;;;;;5.50;1.58;;;;;;;;;;5072003;28;20089;-74
2022/06/20 15:10:35;;;;;;;4.53;1.50;;;;;;;;;;5072061;28;20040;-74
2022/06/20 15:13:03;;;;;;;5.07;1.75;;;;;;;;;;5072216;28;20032;-74
2022/06/20 15:15:29;;;;;;;6.40;1.50;;;;;;;;;;5072019;28;20090;-74
2022/06/20 15:17:55;;;;;;;5.15;1.75;;;;;;;;;;5055448;28;20044;-74
2022/06/20 15:20:32;;;;;;;4.38;1.60;;;;;;;;;;5071641;28;20493;-74
2022/06/20 15:23:04;;;;;;;7.38;1.95;;;;;;;;;;5071895;28;20055;-74
2022/06/20 15:25:33;;;;;;;5.05;1.63;;;;;;;;;;5071739;28;20043;-73
2022/06/20 15:28:13;;;;;;;7.70;1.95;;;;;;;;;;5071635;28;20070;-74